sensor_id;sensor_type;location;lat;lon;timestamp;pressure;altitude;pressure_sealevel;temperature;humidity
20115;BME280;10218;42.874;25.320;2022-08-03T00:01:35;97065.50;;;20.84;100.00
20115;BME280;10218;42.874;25.320;2022-08-03T00:04:03;97067.88;;;20.69;100.00
20115;BME280;10218;42.874;25.320;2022-08-03T00:06:31;97057.97;;;20.63;100.00
20115;BME280;10218;42.874;25.320;2022-08-03T00:09:03;97065.91;;;20.65;100.00
20115;BME280;10218;42.874;25.320;2022-08-03T00:11:31;97067.31;;;20.44;100.00
20115;BME280;10218;42.874;25.320;2022-08-03T00:13:59;97078.78;;;20.46;100.00
20115;BME280;10218;42.874;25.320;2022-08-03T00:16:26;97065.66;;;20.55;100.00
20115;BME280;10218;42.874;25.320;2022-08-03T00:18:54;97068.63;;;20.53;100.00
20115;BME280;10218;42.874;25.320;2022-08-03T00:21:23;97069.56;;;20.59;100.00
20115;BME280;10218;42.874;25.320;2022-08-03T00:23:51;97073.69;;;20.38;100.00
20115;BME280;10218;42.874;25.320;2022-08-03T00:26:20;97075.59;;;20.49;100.00
20115;BME280;10218;42.874;25.320;2022-08-03T00:28:48;97075.69;;;20.42;100.00
20115;BME280;10218;42.874;25.320;2022-08-03T00:31:15;97071.47;;;20.35;100.00
20115;BME280;10218;42.874;25.320;2022-08-03T00:33:43;97075.69;;;20.42;100.00
20115;BME280;10218;42.874;25.320;2022-08-03T00:36:10;97075.22;;;20.34;100.00
20115;BME280;10218;42.874;25.320;2022-08-03T00:38:37;97073.94;;;20.36;100.00
20115;BME280;10218;42.874;25.320;2022-08-03T00:41:04;97077.13;;;20.45;100.00
20115;BME280;10218;42.874;25.320;2022-08-03T00:43:32;97080.44;;;20.35;100.00
20115;BME280;10218;42.874;25.320;2022-08-03T00:45:59;97076.50;;;20.20;100.00
20115;BME280;10218;42.874;25.320;2022-08-03T00:48:26;97070.69;;;20.04;100.00
20115;BME280;10218;42.874;25.320;2022-08-03T00:50:54;97072.81;;;19.91;100.00
20115;BME280;10218;42.874;25.320;2022-08-03T00:53:23;97082.72;;;20.08;100.00
20115;BME280;10218;42.874;25.320;2022-08-03T00:55:51;97085.09;;;20.05;100.00
20115;BME280;10218;42.874;25.320;2022-08-03T00:58:18;97083.56;;;20.09;100.00
20115;BME280;10218;42.874;25.320;2022-08-03T01:00:45;97086.41;;;20.26;100.00
20115;BME280;10218;42.874;25.320;2022-08-03T01:03:13;97088.41;;;20.30;100.00
20115;BME280;10218;42.874;25.320;2022-08-03T01:08:34;97085.47;;;20.32;100.00
20115;BME280;10218;42.874;25.320;2022-08-03T01:14:23;97086.28;;;20.09;100.00
20115;BME280;10218;42.874;25.320;2022-08-03T01:17:24;97091.91;;;19.96;100.00
20115;BME280;10218;42.874;25.320;2022-08-03T01:20:02;97086.44;;;19.73;100.00
20115;BME280;10218;42.874;25.320;2022-08-03T01:28:54;97087.53;;;19.83;100.00
20115;BME280;10218;42.874;25.320;2022-08-03T01:31:40;97086.59;;;19.89;100.00
20115;BME280;10218;42.874;25.320;2022-08-03T01:34:12;97087.81;;;20.05;100.00
20115;BME280;10218;42.874;25.320;2022-08-03T01:36:51;97086.97;;;20.04;100.00
20115;BME280;10218;42.874;25.320;2022-08-03T01:39:20;97094.94;;;19.88;100.00
20115;BME280;10218;42.874;25.320;2022-08-03T01:41:55;97083.63;;;19.79;100.00
20115;BME280;10218;42.874;25.320;2022-08-03T01:44:33;97086.75;;;20.06;100.00
20115;BME280;10218;42.874;25.320;2022-08-03T01:47:02;97081.06;;;19.96;100.00
20115;BME280;10218;42.874;25.320;2022-08-03T01:49:34;97084.50;;;20.15;100.00
20115;BME280;10218;42.874;25.320;2022-08-03T01:52:05;97092.16;;;20.18;100.00
20115;BME280;10218;42.874;25.320;2022-08-03T01:54:41;97089.81;;;20.10;100.00
20115;BME280;10218;42.874;25.320;2022-08-03T01:57:09;97083.09;;;20.00;100.00
20115;BME280;10218;42.874;25.320;2022-08-03T01:59:38;97083.78;;;20.07;100.00
20115;BME280;10218;42.874;25.320;2022-08-03T02:02:09;97088.69;;;19.87;100.00
20115;BME280;10218;42.874;25.320;2022-08-03T02:04:40;97084.69;;;19.78;100.00
20115;BME280;10218;42.874;25.320;2022-08-03T02:07:09;97080.94;;;19.91;100.00
20115;BME280;10218;42.874;25.320;2022-08-03T02:09:39;97080.00;;;19.85;100.00
20115;BME280;10218;42.874;25.320;2022-08-03T02:12:10;97085.31;;;20.03;100.00
20115;BME280;10218;42.874;25.320;2022-08-03T02:14:40;97081.63;;;19.75;100.00
20115;BME280;10218;42.874;25.320;2022-08-03T02:17:09;97086.12;;;19.81;100.00
20115;BME280;10218;42.874;25.320;2022-08-03T02:19:39;97082.69;;;19.97;100.00
20115;BME280;10218;42.874;25.320;2022-08-03T02:22:09;97089.09;;;19.91;100.00
20115;BME280;10218;42.874;25.320;2022-08-03T02:24:40;97086.94;;;19.93;100.00
20115;BME280;10218;42.874;25.320;2022-08-03T02:27:16;97086.69;;;19.83;100.00
20115;BME280;10218;42.874;25.320;2022-08-03T02:29:48;97085.47;;;19.67;100.00
20115;BME280;10218;42.874;25.320;2022-08-03T02:32:23;97083.94;;;19.71;100.00
20115;BME280;10218;42.874;25.320;2022-08-03T02:34:55;97084.59;;;19.96;100.00
20115;BME280;10218;42.874;25.320;2022-08-03T02:37:27;97082.50;;;20.10;100.00
20115;BME280;10218;42.874;25.320;2022-08-03T02:40:01;97082.09;;;19.83;100.00
20115;BME280;10218;42.874;25.320;2022-08-03T02:42:31;97081.75;;;19.91;100.00
20115;BME280;10218;42.874;25.320;2022-08-03T02:45:02;97087.38;;;19.78;100.00
20115;BME280;10218;42.874;25.320;2022-08-03T02:47:34;97083.03;;;19.77;100.00
20115;BME280;10218;42.874;25.320;2022-08-03T02:50:02;97084.41;;;19.68;100.00
20115;BME280;10218;42.874;25.320;2022-08-03T02:52:32;97089.28;;;19.78;100.00
20115;BME280;10218;42.874;25.320;2022-08-03T02:55:03;97087.53;;;19.83;100.00
20115;BME280;10218;42.874;25.320;2022-08-03T02:57:33;97079.53;;;20.00;100.00
20115;BME280;10218;42.874;25.320;2022-08-03T03:00:03;97084.00;;;19.94;100.00
20115;BME280;10218;42.874;25.320;2022-08-03T03:02:30;97087.41;;;19.90;100.00
20115;BME280;10218;42.874;25.320;2022-08-03T03:04:58;97091.22;;;20.00;100.00
20115;BME280;10218;42.874;25.320;2022-08-03T03:07:27;97090.63;;;19.98;100.00
20115;BME280;10218;42.874;25.320;2022-08-03T03:09:56;97091.69;;;20.09;100.00
20115;BME280;10218;42.874;25.320;2022-08-03T03:12:25;97087.03;;;19.86;100.00
20115;BME280;10218;42.874;25.320;2022-08-03T03:14:54;97094.84;;;19.94;100.00
20115;BME280;10218;42.874;25.320;2022-08-03T03:17:22;97093.50;;;19.74;100.00
20115;BME280;10218;42.874;25.320;2022-08-03T03:19:52;97101.41;;;19.75;100.00
20115;BME280;10218;42.874;25.320;2022-08-03T03:22:20;97104.50;;;19.49;100.00
20115;BME280;10218;42.874;25.320;2022-08-03T03:24:49;97110.72;;;19.79;100.00
20115;BME280;10218;42.874;25.320;2022-08-03T03:27:17;97113.88;;;19.76;100.00
20115;BME280;10218;42.874;25.320;2022-08-03T03:29:45;97111.53;;;19.68;100.00
20115;BME280;10218;42.874;25.320;2022-08-03T03:32:13;97116.72;;;19.70;100.00
20115;BME280;10218;42.874;25.320;2022-08-03T03:34:41;97119.75;;;19.43;100.00
20115;BME280;10218;42.874;25.320;2022-08-03T03:37:09;97126.44;;;19.41;100.00
20115;BME280;10218;42.874;25.320;2022-08-03T03:39:38;97120.41;;;19.09;100.00
20115;BME280;10218;42.874;25.320;2022-08-03T03:42:06;97126.81;;;19.14;100.00
20115;BME280;10218;42.874;25.320;2022-08-03T03:44:33;97115.50;;;19.17;100.00
20115;BME280;10218;42.874;25.320;2022-08-03T03:47:00;97128.37;;;19.22;100.00
20115;BME280;10218;42.874;25.320;2022-08-03T03:49:30;97127.53;;;19.40;100.00
20115;BME280;10218;42.874;25.320;2022-08-03T03:51:57;97129.94;;;19.30;100.00
20115;BME280;10218;42.874;25.320;2022-08-03T03:54:25;97128.19;;;19.35;100.00
20115;BME280;10218;42.874;25.320;2022-08-03T03:56:52;97115.31;;;19.31;100.00
20115;BME280;10218;42.874;25.320;2022-08-03T03:59:20;97135.97;;;19.50;100.00
20115;BME280;10218;42.874;25.320;2022-08-03T04:01:47;97135.31;;;19.66;100.00
20115;BME280;10218;42.874;25.320;2022-08-03T04:04:16;97134.59;;;19.59;100.00
20115;BME280;10218;42.874;25.320;2022-08-03T04:07:01;97125.59;;;19.88;100.00
20115;BME280;10218;42.874;25.320;2022-08-03T04:09:48;97126.87;;;19.74;100.00
20115;BME280;10218;42.874;25.320;2022-08-03T04:12:35;97134.00;;;19.98;100.00
20115;BME280;10218;42.874;25.320;2022-08-03T04:15:05;97134.44;;;19.84;100.00
20115;BME280;10218;42.874;25.320;2022-08-03T04:17:32;97139.91;;;19.95;100.00
20115;BME280;10218;42.874;25.320;2022-08-03T04:20:01;97136.38;;;20.06;100.00
20115;BME280;10218;42.874;25.320;2022-08-03T04:22:30;97149.16;;;20.29;100.00
20115;BME280;10218;42.874;25.320;2022-08-03T04:25:02;97146.62;;;20.46;100.00
20115;BME280;10218;42.874;25.320;2022-08-03T04:27:36;97148.97;;;20.54;100.00
20115;BME280;10218;42.874;25.320;2022-08-03T04:30:05;97154.75;;;20.34;100.00
20115;BME280;10218;42.874;25.320;2022-08-03T04:32:34;97154.78;;;20.04;100.00
20115;BME280;10218;42.874;25.320;2022-08-03T04:35:03;97157.34;;;20.53;100.00
20115;BME280;10218;42.874;25.320;2022-08-03T04:37:38;97150.75;;;20.83;100.00
20115;BME280;10218;42.874;25.320;2022-08-03T04:40:08;97149.47;;;20.10;100.00
20115;BME280;10218;42.874;25.320;2022-08-03T04:42:37;97146.19;;;20.19;100.00
20115;BME280;10218;42.874;25.320;2022-08-03T04:45:07;97151.59;;;20.07;100.00
20115;BME280;10218;42.874;25.320;2022-08-03T04:47:37;97159.94;;;19.94;100.00
20115;BME280;10218;42.874;25.320;2022-08-03T04:50:05;97163.88;;;20.10;100.00
20115;BME280;10218;42.874;25.320;2022-08-03T04:52:36;97163.50;;;20.06;100.00
20115;BME280;10218;42.874;25.320;2022-08-03T04:55:05;97162.91;;;20.46;100.00
20115;BME280;10218;42.874;25.320;2022-08-03T04:57:32;97160.44;;;20.56;100.00
20115;BME280;10218;42.874;25.320;2022-08-03T04:59:59;97170.03;;;20.29;100.00
20115;BME280;10218;42.874;25.320;2022-08-03T05:02:30;97169.91;;;20.24;100.00
20115;BME280;10218;42.874;25.320;2022-08-03T05:04:58;97162.19;;;20.85;100.00
20115;BME280;10218;42.874;25.320;2022-08-03T05:07:25;97173.53;;;21.06;100.00
20115;BME280;10218;42.874;25.320;2022-08-03T05:09:52;97177.44;;;20.86;100.00
20115;BME280;10218;42.874;25.320;2022-08-03T05:12:19;97179.31;;;20.98;100.00
20115;BME280;10218;42.874;25.320;2022-08-03T05:14:47;97175.66;;;20.80;100.00
20115;BME280;10218;42.874;25.320;2022-08-03T05:17:14;97177.19;;;21.23;100.00
20115;BME280;10218;42.874;25.320;2022-08-03T05:19:42;97182.84;;;21.10;100.00
20115;BME280;10218;42.874;25.320;2022-08-03T05:22:13;97185.00;;;20.96;100.00
20115;BME280;10218;42.874;25.320;2022-08-03T05:24:41;97176.34;;;21.11;100.00
20115;BME280;10218;42.874;25.320;2022-08-03T05:27:08;97155.22;;;20.78;100.00
20115;BME280;10218;42.874;25.320;2022-08-03T05:29:36;97182.88;;;20.86;100.00
20115;BME280;10218;42.874;25.320;2022-08-03T05:32:04;97186.75;;;20.67;100.00
20115;BME280;10218;42.874;25.320;2022-08-03T05:34:34;97196.78;;;20.78;100.00
20115;BME280;10218;42.874;25.320;2022-08-03T05:37:02;97204.34;;;20.76;100.00
20115;BME280;10218;42.874;25.320;2022-08-03T05:39:30;97203.06;;;20.90;100.00
20115;BME280;10218;42.874;25.320;2022-08-03T05:41:57;97202.22;;;20.90;100.00
20115;BME280;10218;42.874;25.320;2022-08-03T05:44:25;97205.41;;;20.99;100.00
20115;BME280;10218;42.874;25.320;2022-08-03T05:46:54;97202.09;;;20.85;100.00
20115;BME280;10218;42.874;25.320;2022-08-03T05:49:22;97206.94;;;20.83;100.00
20115;BME280;10218;42.874;25.320;2022-08-03T05:51:50;97205.78;;;21.02;100.00
20115;BME280;10218;42.874;25.320;2022-08-03T05:54:18;97223.12;;;20.89;100.00
20115;BME280;10218;42.874;25.320;2022-08-03T05:56:45;97217.69;;;21.13;100.00
20115;BME280;10218;42.874;25.320;2022-08-03T05:59:13;97225.84;;;20.89;100.00
20115;BME280;10218;42.874;25.320;2022-08-03T06:02:00;97214.75;;;21.26;100.00
20115;BME280;10218;42.874;25.320;2022-08-03T06:04:27;97213.19;;;21.30;100.00
20115;BME280;10218;42.874;25.320;2022-08-03T06:06:54;97232.13;;;21.25;100.00
20115;BME280;10218;42.874;25.320;2022-08-03T06:09:23;97228.56;;;21.36;100.00
20115;BME280;10218;42.874;25.320;2022-08-03T06:11:50;97229.13;;;21.03;100.00
20115;BME280;10218;42.874;25.320;2022-08-03T06:14:17;97235.19;;;21.17;100.00
20115;BME280;10218;42.874;25.320;2022-08-03T06:16:44;97235.19;;;21.17;100.00
20115;BME280;10218;42.874;25.320;2022-08-03T06:19:12;97236.81;;;20.83;100.00
20115;BME280;10218;42.874;25.320;2022-08-03T06:21:39;97237.78;;;21.23;100.00
20115;BME280;10218;42.874;25.320;2022-08-03T06:24:08;97243.81;;;21.25;100.00
20115;BME280;10218;42.874;25.320;2022-08-03T06:26:38;97244.03;;;21.36;100.00
20115;BME280;10218;42.874;25.320;2022-08-03T06:29:07;97244.47;;;21.44;100.00
20115;BME280;10218;42.874;25.320;2022-08-03T06:31:34;97241.87;;;21.61;100.00
20115;BME280;10218;42.874;25.320;2022-08-03T06:34:03;97252.62;;;21.44;100.00
20115;BME280;10218;42.874;25.320;2022-08-03T06:36:30;97244.97;;;21.29;100.00
20115;BME280;10218;42.874;25.320;2022-08-03T06:38:58;97251.00;;;20.97;100.00
20115;BME280;10218;42.874;25.320;2022-08-03T06:41:26;97251.09;;;21.13;100.00
20115;BME280;10218;42.874;25.320;2022-08-03T06:43:54;97249.47;;;21.36;100.00
20115;BME280;10218;42.874;25.320;2022-08-03T06:46:21;97251.44;;;21.63;100.00
20115;BME280;10218;42.874;25.320;2022-08-03T06:48:48;97244.06;;;21.75;100.00
20115;BME280;10218;42.874;25.320;2022-08-03T06:51:18;97244.13;;;22.04;100.00
20115;BME280;10218;42.874;25.320;2022-08-03T06:53:45;97240.50;;;22.43;100.00
20115;BME280;10218;42.874;25.320;2022-08-03T06:56:13;97237.59;;;22.78;100.00
20115;BME280;10218;42.874;25.320;2022-08-03T06:58:40;97208.56;;;23.61;100.00
20115;BME280;10218;42.874;25.320;2022-08-03T07:01:07;97220.09;;;23.68;100.00
20115;BME280;10218;42.874;25.320;2022-08-03T07:03:35;97250.94;;;23.13;100.00
20115;BME280;10218;42.874;25.320;2022-08-03T07:06:02;97240.50;;;23.27;100.00
20115;BME280;10218;42.874;25.320;2022-08-03T07:08:30;97234.00;;;23.11;100.00
20115;BME280;10218;42.874;25.320;2022-08-03T07:10:57;97245.09;;;23.43;100.00
20115;BME280;10218;42.874;25.320;2022-08-03T07:13:24;97241.00;;;23.40;100.00
20115;BME280;10218;42.874;25.320;2022-08-03T07:15:51;97239.38;;;23.06;100.00
20115;BME280;10218;42.874;25.320;2022-08-03T07:18:18;97244.28;;;23.81;98.57
20115;BME280;10218;42.874;25.320;2022-08-03T07:20:47;97247.88;;;24.08;95.49
20115;BME280;10218;42.874;25.320;2022-08-03T07:23:14;97250.59;;;24.30;95.43
20115;BME280;10218;42.874;25.320;2022-08-03T07:25:41;97246.09;;;25.04;87.11
20115;BME280;10218;42.874;25.320;2022-08-03T07:28:09;97245.03;;;24.74;88.71
20115;BME280;10218;42.874;25.320;2022-08-03T07:30:37;97243.41;;;24.46;94.37
20115;BME280;10218;42.874;25.320;2022-08-03T07:33:04;97239.31;;;24.48;98.02
20115;BME280;10218;42.874;25.320;2022-08-03T07:35:32;97242.41;;;24.08;100.00
20115;BME280;10218;42.874;25.320;2022-08-03T07:38:01;97243.00;;;23.88;100.00
20115;BME280;10218;42.874;25.320;2022-08-03T07:40:28;97240.81;;;24.88;96.27
20115;BME280;10218;42.874;25.320;2022-08-03T07:42:56;97244.72;;;24.43;95.67
20115;BME280;10218;42.874;25.320;2022-08-03T07:45:24;97242.22;;;24.95;86.19
20115;BME280;10218;42.874;25.320;2022-08-03T07:47:53;97247.44;;;25.34;81.29
20115;BME280;10218;42.874;25.320;2022-08-03T07:50:20;97249.13;;;25.03;84.14
20115;BME280;10218;42.874;25.320;2022-08-03T07:52:48;97247.31;;;24.87;83.52
20115;BME280;10218;42.874;25.320;2022-08-03T07:55:19;97238.53;;;24.85;84.65
20115;BME280;10218;42.874;25.320;2022-08-03T07:58:07;97243.75;;;24.86;83.85
20115;BME280;10218;42.874;25.320;2022-08-03T08:00:36;97246.31;;;26.59;69.54
20115;BME280;10218;42.874;25.320;2022-08-03T08:03:04;97241.41;;;26.71;68.97
20115;BME280;10218;42.874;25.320;2022-08-03T08:05:33;97252.41;;;27.12;65.08
20115;BME280;10218;42.874;25.320;2022-08-03T08:08:01;97253.47;;;26.86;63.04
20115;BME280;10218;42.874;25.320;2022-08-03T08:10:30;97250.72;;;26.65;62.68
20115;BME280;10218;42.874;25.320;2022-08-03T08:12:58;97252.09;;;26.98;59.53
20115;BME280;10218;42.874;25.320;2022-08-03T08:15:25;97255.13;;;27.27;57.68
20115;BME280;10218;42.874;25.320;2022-08-03T08:17:55;97251.53;;;27.42;57.58
20115;BME280;10218;42.874;25.320;2022-08-03T08:20:25;97256.75;;;27.18;57.29
20115;BME280;10218;42.874;25.320;2022-08-03T08:23:00;97256.47;;;27.50;54.08
20115;BME280;10218;42.874;25.320;2022-08-03T08:25:28;97250.44;;;27.17;56.17
20115;BME280;10218;42.874;25.320;2022-08-03T08:27:57;97253.19;;;27.02;55.82
20115;BME280;10218;42.874;25.320;2022-08-03T08:30:28;97254.28;;;27.42;54.15
20115;BME280;10218;42.874;25.320;2022-08-03T08:32:55;97259.47;;;27.53;53.72
20115;BME280;10218;42.874;25.320;2022-08-03T08:35:24;97255.63;;;27.39;52.61
20115;BME280;10218;42.874;25.320;2022-08-03T08:37:51;97242.47;;;28.26;51.09
20115;BME280;10218;42.874;25.320;2022-08-03T08:40:20;97250.59;;;27.87;51.93
20115;BME280;10218;42.874;25.320;2022-08-03T08:42:48;97250.47;;;27.02;54.14
20115;BME280;10218;42.874;25.320;2022-08-03T08:45:24;97252.72;;;28.05;52.75
20115;BME280;10218;42.874;25.320;2022-08-03T08:47:54;97250.19;;;28.68;49.93
20115;BME280;10218;42.874;25.320;2022-08-03T08:50:26;97252.75;;;29.61;46.28
20115;BME280;10218;42.874;25.320;2022-08-03T08:52:55;97249.31;;;28.77;49.21
20115;BME280;10218;42.874;25.320;2022-08-03T08:55:25;97254.53;;;27.45;50.71
20115;BME280;10218;42.874;25.320;2022-08-03T08:58:04;97254.09;;;28.13;49.58
20115;BME280;10218;42.874;25.320;2022-08-03T09:00:33;97244.94;;;28.32;49.79
20115;BME280;10218;42.874;25.320;2022-08-03T09:03:00;97255.94;;;30.58;45.49
20115;BME280;10218;42.874;25.320;2022-08-03T09:05:29;97251.19;;;29.73;44.78
20115;BME280;10218;42.874;25.320;2022-08-03T09:08:19;97256.97;;;30.01;45.58
20115;BME280;10218;42.874;25.320;2022-08-03T09:10:47;97247.66;;;30.58;44.86
20115;BME280;10218;42.874;25.320;2022-08-03T09:13:14;97248.63;;;28.96;46.87
20115;BME280;10218;42.874;25.320;2022-08-03T09:15:42;97246.44;;;29.26;45.67
20115;BME280;10218;42.874;25.320;2022-08-03T09:18:10;97238.69;;;29.33;45.20
20115;BME280;10218;42.874;25.320;2022-08-03T09:20:38;97247.56;;;30.26;43.31
20115;BME280;10218;42.874;25.320;2022-08-03T09:23:07;97246.91;;;29.91;44.47
20115;BME280;10218;42.874;25.320;2022-08-03T09:25:56;97237.81;;;31.08;42.36
20115;BME280;10218;42.874;25.320;2022-08-03T09:28:26;97244.75;;;29.83;44.01
20115;BME280;10218;42.874;25.320;2022-08-03T09:30:59;97234.37;;;30.97;43.63
20115;BME280;10218;42.874;25.320;2022-08-03T09:33:27;97246.31;;;30.37;43.13
20115;BME280;10218;42.874;25.320;2022-08-03T09:35:54;97247.66;;;29.97;43.87
20115;BME280;10218;42.874;25.320;2022-08-03T09:38:24;97245.66;;;30.02;42.92
20115;BME280;10218;42.874;25.320;2022-08-03T09:40:55;97249.06;;;29.94;43.50
20115;BME280;10218;42.874;25.320;2022-08-03T09:43:25;97246.25;;;30.42;42.33
20115;BME280;10218;42.874;25.320;2022-08-03T09:46:01;97239.22;;;28.63;46.45
20115;BME280;10218;42.874;25.320;2022-08-03T09:48:31;97239.03;;;28.93;46.28
20115;BME280;10218;42.874;25.320;2022-08-03T09:51:02;97234.44;;;29.12;46.00
20115;BME280;10218;42.874;25.320;2022-08-03T09:53:30;97238.34;;;30.54;43.43
20115;BME280;10218;42.874;25.320;2022-08-03T09:56:01;97232.13;;;32.33;40.08
20115;BME280;10218;42.874;25.320;2022-08-03T09:58:29;97235.25;;;31.44;39.32
20115;BME280;10218;42.874;25.320;2022-08-03T10:03:29;97222.81;;;31.88;37.41
20115;BME280;10218;42.874;25.320;2022-08-03T10:05:57;97225.88;;;31.13;39.17
20115;BME280;10218;42.874;25.320;2022-08-03T10:08:25;97228.88;;;31.30;38.68
20115;BME280;10218;42.874;25.320;2022-08-03T10:10:53;97223.00;;;31.91;37.48
20115;BME280;10218;42.874;25.320;2022-08-03T10:13:21;97228.91;;;30.17;40.60
20115;BME280;10218;42.874;25.320;2022-08-03T10:15:49;97214.28;;;30.22;40.84
20115;BME280;10218;42.874;25.320;2022-08-03T10:18:16;97217.09;;;31.98;37.96
20115;BME280;10218;42.874;25.320;2022-08-03T10:20:55;97199.22;;;32.31;37.53
20115;BME280;10218;42.874;25.320;2022-08-03T10:23:24;97206.75;;;32.66;37.21
20115;BME280;10218;42.874;25.320;2022-08-03T10:25:57;97196.81;;;32.88;36.91
20115;BME280;10218;42.874;25.320;2022-08-03T10:28:27;97193.25;;;32.65;37.92
20115;BME280;10218;42.874;25.320;2022-08-03T10:31:00;97195.16;;;31.33;39.03
20115;BME280;10218;42.874;25.320;2022-08-03T10:33:33;97199.13;;;33.70;36.59
20115;BME280;10218;42.874;25.320;2022-08-03T10:36:04;97188.97;;;32.45;37.82
20115;BME280;10218;42.874;25.320;2022-08-03T10:38:53;97188.16;;;33.34;35.37
20115;BME280;10218;42.874;25.320;2022-08-03T10:41:23;97181.44;;;31.28;38.82
20115;BME280;10218;42.874;25.320;2022-08-03T10:43:57;97199.22;;;33.96;35.25
20115;BME280;10218;42.874;25.320;2022-08-03T10:46:25;97183.84;;;34.63;33.89
20115;BME280;10218;42.874;25.320;2022-08-03T10:48:54;97197.03;;;33.84;33.89
20115;BME280;10218;42.874;25.320;2022-08-03T10:51:22;97187.56;;;31.25;36.35
20115;BME280;10218;42.874;25.320;2022-08-03T10:53:50;97184.97;;;31.61;36.33
20115;BME280;10218;42.874;25.320;2022-08-03T10:59:55;97181.50;;;32.46;36.18
20115;BME280;10218;42.874;25.320;2022-08-03T11:02:06;97177.16;;;31.49;36.64
20115;BME280;10218;42.874;25.320;2022-08-03T11:04:36;97168.66;;;31.32;37.28
20115;BME280;10218;42.874;25.320;2022-08-03T11:09:45;97173.41;;;32.72;34.73
20115;BME280;10218;42.874;25.320;2022-08-03T11:14:50;97162.03;;;31.60;36.78
20115;BME280;10218;42.874;25.320;2022-08-03T11:17:19;97165.91;;;31.32;37.53
20115;BME280;10218;42.874;25.320;2022-08-03T11:19:56;97165.72;;;33.13;34.59
20115;BME280;10218;42.874;25.320;2022-08-03T11:22:48;97133.88;;;34.20;33.29
20115;BME280;10218;42.874;25.320;2022-08-03T11:25:17;97159.72;;;36.21;30.61
20115;BME280;10218;42.874;25.320;2022-08-03T11:27:47;97148.94;;;35.81;30.19
20115;BME280;10218;42.874;25.320;2022-08-03T11:32:53;97144.22;;;33.41;32.83
20115;BME280;10218;42.874;25.320;2022-08-03T11:35:31;97132.63;;;32.19;34.48
20115;BME280;10218;42.874;25.320;2022-08-03T11:38:02;97131.81;;;32.05;35.68
20115;BME280;10218;42.874;25.320;2022-08-03T11:40:42;97131.12;;;31.44;36.57
20115;BME280;10218;42.874;25.320;2022-08-03T11:48:39;97126.63;;;31.76;35.56
20115;BME280;10218;42.874;25.320;2022-08-03T11:53:51;97126.53;;;34.24;32.73
20115;BME280;10218;42.874;25.320;2022-08-03T11:56:18;97128.59;;;33.45;33.32
20115;BME280;10218;42.874;25.320;2022-08-03T11:58:50;97120.09;;;32.80;34.64
20115;BME280;10218;42.874;25.320;2022-08-03T12:01:21;97121.69;;;32.00;35.03
20115;BME280;10218;42.874;25.320;2022-08-03T12:03:50;97127.41;;;33.68;32.33
20115;BME280;10218;42.874;25.320;2022-08-03T12:06:18;97113.37;;;36.25;29.17
20115;BME280;10218;42.874;25.320;2022-08-03T12:08:45;97110.91;;;35.73;30.02
20115;BME280;10218;42.874;25.320;2022-08-03T12:11:14;97108.41;;;35.42;30.10
20115;BME280;10218;42.874;25.320;2022-08-03T12:13:47;97115.78;;;37.01;29.13
20115;BME280;10218;42.874;25.320;2022-08-03T12:16:20;97100.06;;;36.84;27.65
20115;BME280;10218;42.874;25.320;2022-08-03T12:18:59;97101.03;;;34.91;29.74
20115;BME280;10218;42.874;25.320;2022-08-03T12:21:27;97100.28;;;34.13;31.94
20115;BME280;10218;42.874;25.320;2022-08-03T12:23:56;97098.78;;;34.07;31.72
20115;BME280;10218;42.874;25.320;2022-08-03T12:26:25;97096.81;;;32.36;33.53
20115;BME280;10218;42.874;25.320;2022-08-03T12:28:53;97082.69;;;32.02;33.49
20115;BME280;10218;42.874;25.320;2022-08-03T12:31:20;97086.91;;;32.35;33.62
20115;BME280;10218;42.874;25.320;2022-08-03T12:33:58;97099.47;;;32.86;32.04
20115;BME280;10218;42.874;25.320;2022-08-03T12:36:26;97083.03;;;35.06;29.41
20115;BME280;10218;42.874;25.320;2022-08-03T12:38:59;97094.28;;;37.34;27.36
20115;BME280;10218;42.874;25.320;2022-08-03T12:41:38;97093.31;;;35.90;27.27
20115;BME280;10218;42.874;25.320;2022-08-03T12:44:07;97083.53;;;37.00;26.99
20115;BME280;10218;42.874;25.320;2022-08-03T12:46:40;97077.69;;;36.60;26.40
20115;BME280;10218;42.874;25.320;2022-08-03T12:49:11;97080.34;;;37.95;25.22
20115;BME280;10218;42.874;25.320;2022-08-03T12:54:22;97062.41;;;38.60;24.54
20115;BME280;10218;42.874;25.320;2022-08-03T12:57:01;97072.47;;;37.36;26.17
20115;BME280;10218;42.874;25.320;2022-08-03T12:59:39;97068.88;;;36.91;27.75
20115;BME280;10218;42.874;25.320;2022-08-03T13:02:20;97073.78;;;37.63;27.02
20115;BME280;10218;42.874;25.320;2022-08-03T13:04:48;97074.03;;;38.22;25.77
20115;BME280;10218;42.874;25.320;2022-08-03T13:07:17;97065.78;;;37.04;26.12
20115;BME280;10218;42.874;25.320;2022-08-03T13:09:52;97069.75;;;38.53;24.62
20115;BME280;10218;42.874;25.320;2022-08-03T13:12:25;97062.44;;;39.19;24.13
20115;BME280;10218;42.874;25.320;2022-08-03T13:14:59;97065.69;;;38.10;25.38
20115;BME280;10218;42.874;25.320;2022-08-03T13:17:27;97058.84;;;35.24;27.90
20115;BME280;10218;42.874;25.320;2022-08-03T13:19:54;97055.75;;;36.25;26.96
20115;BME280;10218;42.874;25.320;2022-08-03T13:22:24;97054.62;;;35.76;27.04
20115;BME280;10218;42.874;25.320;2022-08-03T13:24:52;97050.91;;;34.96;28.57
20115;BME280;10218;42.874;25.320;2022-08-03T13:27:23;97056.50;;;35.34;27.79
20115;BME280;10218;42.874;25.320;2022-08-03T13:29:51;97047.84;;;36.15;26.31
20115;BME280;10218;42.874;25.320;2022-08-03T13:32:19;97057.59;;;36.75;26.16
20115;BME280;10218;42.874;25.320;2022-08-03T13:34:46;97062.31;;;35.41;27.99
20115;BME280;10218;42.874;25.320;2022-08-03T13:37:14;97059.44;;;35.67;27.88